Adventuress — WCX8691 — position and weather

sailwx.info

Track history (hours):
 
Tides and Currents Weather Stations Pressure Air Temp Water Temp Dewpoint Dewpoint Depression Visibility Wind Speed Wind Dir Waves Ship Positions

Adventuress (United States)

Ship's website: http://www.soundexp.org/

Owner: SOUND EXPERIENCE, PORT TOWNSEND, WA. More information available from US FCC via Universal Licensing System and Coast Guard Vessel Documentation Center.

Last reported at 2016-May-11 01:28 UTC. Time now 2016-May-26 08:47 UTC.
Position N 48°45' W 122°31'.
Warning: this ship's position is 15 days out of date.

Type: Passenger vessel. MMSI: 367323180.

Date/timePositionNaut miles runAvg speedWind from/ knotsBaromVisibWave heightAir tempDewpointWater temp
2016-May-11 01:28N 48°45' W 122°31'10 5.1
2016-May-10 23:32N 48°36' W 122°38'  
2016-May-04 15:26N 48°29' W 122°57'4 1.9
2016-May-04 13:14N 48°32' W 123°01'1 0.1
2016-May-03 22:30N 48°33' W 122°59'23 2.2
2016-May-03 12:24N 48°45' W 122°30'0 0.0
2016-May-03 11:15N 48°45' W 122°30'0 0.0
2016-May-02 00:29N 48°45' W 122°31'1 1.0
2016-May-01 23:33N 48°45' W 122°32'1 0.6
2016-May-01 22:32N 48°45' W 122°31'1 0.2
2016-May-01 20:27N 48°45' W 122°30'1 1.6
2016-May-01 19:33N 48°44' W 122°32'1 1.2
2016-May-01 18:33N 48°45' W 122°31'0 0.1
2016-May-01 15:05N 48°45' W 122°30'0 0.0
2016-May-01 09:17N 48°45' W 122°30'0 0.0
2016-May-01 06:32N 48°45' W 122°30'0 0.0
2016-May-01 02:26N 48°45' W 122°30'  
Track history (hours):
 
Tides and Currents Weather Stations Pressure Air Temp Water Temp Dewpoint Dewpoint Depression Visibility Wind Speed Wind Dir Waves Ship Positions

Adventuress (United States)

Ship's website: http://www.soundexp.org/

Owner: SOUND EXPERIENCE, PORT TOWNSEND, WA. More information available from US FCC via Universal Licensing System and Coast Guard Vessel Documentation Center.

Last reported at 2016-May-11 01:28 UTC. Time now 2016-May-26 08:47 UTC.
Position N 48°45' W 122°31'.
Warning: this ship's position is 15 days out of date.

Type: Passenger vessel. MMSI: 367323180.

Date/timePositionNaut miles runAvg speedWind from/ knotsBaromVisibWave heightAir tempDewpointWater temp
2016-May-11 01:28N 48°45' W 122°31'10 5.1
2016-May-10 23:32N 48°36' W 122°38'  
2016-May-04 15:26N 48°29' W 122°57'4 1.9
2016-May-04 13:14N 48°32' W 123°01'1 0.1
2016-May-03 22:30N 48°33' W 122°59'23 2.2
2016-May-03 12:24N 48°45' W 122°30'0 0.0
2016-May-03 11:15N 48°45' W 122°30'0 0.0
2016-May-02 00:29N 48°45' W 122°31'1 1.0
2016-May-01 23:33N 48°45' W 122°32'1 0.6
2016-May-01 22:32N 48°45' W 122°31'1 0.2
2016-May-01 20:27N 48°45' W 122°30'1 1.6
2016-May-01 19:33N 48°44' W 122°32'1 1.2
2016-May-01 18:33N 48°45' W 122°31'0 0.1
2016-May-01 15:05N 48°45' W 122°30'0 0.0
2016-May-01 09:17N 48°45' W 122°30'0 0.0
2016-May-01 06:32N 48°45' W 122°30'0 0.0
2016-May-01 02:26N 48°45' W 122°30'  

Dump ship's entire track history